BCT01 CYYR-CYYR

Flight info

Callsign BCT01
Flight time N/A
Altitude 5000
Route VFR
Aircraft C17/H-SGHIRWXY/LB1

Departure

Time 2026-05-03 21:46
Airport Goose Bay Airport (CYYR)

Arrival

Time N/A
Airport Goose Bay Airport (CYYR)
Time Latitude Longitude Altitude Speed Heading
2026-05-03 21:26 53.30787 -60.40357 139 ft 0 kts 43°
2026-05-03 21:37 53.30800 -60.40337 139 ft 7 kts 42°
2026-05-03 21:37 53.30838 -60.40336 139 ft 6 kts 313°
2026-05-03 21:37 53.30889 -60.40379 139 ft 10 kts 21°
2026-05-03 21:38 53.30959 -60.40281 139 ft 16 kts 43°
2026-05-03 21:38 53.31051 -60.40139 139 ft 20 kts 44°
2026-05-03 21:38 53.31150 -60.40116 140 ft 15 kts 319°
2026-05-03 21:38 53.31219 -60.40232 146 ft 13 kts 315°
2026-05-03 21:39 53.31274 -60.40331 149 ft 12 kts 310°
2026-05-03 21:39 53.31334 -60.40443 150 ft 13 kts 314°
2026-05-03 21:39 53.31403 -60.40563 152 ft 16 kts 313°
2026-05-03 21:39 53.31483 -60.40671 152 ft 8 kts 10°
2026-05-03 21:40 53.31510 -60.40627 151 ft 7 kts 45°
2026-05-03 21:40 53.31557 -60.40550 151 ft 11 kts 44°
2026-05-03 21:40 53.31612 -60.40469 153 ft 10 kts 29°
2026-05-03 21:40 53.31674 -60.40495 154 ft 11 kts 315°
2026-05-03 21:41 53.31723 -60.40581 153 ft 14 kts 313°
2026-05-03 21:41 53.31894 -60.40900 158 ft 71 kts 309°
2026-05-03 21:41 53.31801 -60.41008 167 ft 389 kts 347°
2026-05-03 21:41 53.30788 -60.40360 139 ft 0 kts 41°
2026-05-03 21:42 53.30790 -60.40357 140 ft 0 kts 43°
2026-05-03 21:42 53.30800 -60.40342 139 ft 4 kts 42°
2026-05-03 21:42 53.30835 -60.40337 139 ft 7 kts 327°
2026-05-03 21:43 53.30893 -60.40371 139 ft 11 kts 25°
2026-05-03 21:43 53.30967 -60.40268 139 ft 16 kts 43°
2026-05-03 21:43 53.31063 -60.40119 139 ft 21 kts 43°
2026-05-03 21:43 53.31153 -60.40115 140 ft 12 kts 320°
2026-05-03 21:44 53.31211 -60.40216 145 ft 12 kts 313°
2026-05-03 21:44 53.31275 -60.40331 149 ft 15 kts 313°
2026-05-03 21:44 53.31353 -60.40475 151 ft 18 kts 312°
2026-05-03 21:44 53.31425 -60.40604 151 ft 17 kts 314°
2026-05-03 21:45 53.31486 -60.40662 152 ft 4 kts 41°
2026-05-03 21:45 53.31528 -60.40602 151 ft 12 kts 41°
2026-05-03 21:45 53.31596 -60.40498 152 ft 13 kts 43°
2026-05-03 21:45 53.31666 -60.40483 154 ft 12 kts 324°
2026-05-03 21:46 53.31754 -60.40634 154 ft 39 kts 314°
2026-05-03 21:46 53.32211 -60.41461 220 ft 148 kts 315°
2026-05-03 21:46 53.33084 -60.42948 779 ft 203 kts 317°
2026-05-03 21:46 53.34168 -60.44604 1424 ft 208 kts 332°
2026-05-03 21:47 53.35353 -60.43826 1385 ft 216 kts 74°
2026-05-03 21:47 53.34618 -60.41700 1281 ft 224 kts 134°
2026-05-03 21:47 53.33615 -60.39812 1442 ft 198 kts 129°
2026-05-03 21:47 53.32743 -60.38062 1590 ft 200 kts 132°
2026-05-03 21:48 53.31886 -60.36471 1677 ft 174 kts 132°
2026-05-03 21:48 53.30839 -60.36077 1717 ft 164 kts 207°
2026-05-03 21:48 53.30454 -60.37738 881 ft 157 kts 274°
2026-05-03 21:48 53.30943 -60.39219 426 ft 140 kts 316°
2026-05-03 21:49 53.31575 -60.40332 223 ft 126 kts 316°
2026-05-03 21:49 53.32149 -60.41331 171 ft 120 kts 316°
2026-05-03 21:49 53.32887 -60.42687 519 ft 194 kts 315°
2026-05-03 21:49 53.33769 -60.44264 1010 ft 175 kts 315°
2026-05-03 21:50 53.34869 -60.44696 1192 ft 184 kts 41°
2026-05-03 21:50 53.34648 -60.42924 944 ft 181 kts 138°
2026-05-03 21:50 53.33888 -60.41823 901 ft 180 kts 133°
2026-05-03 21:52 53.33398 -60.40968 949 ft 179 kts 131°
2026-05-03 21:52 53.32527 -60.39409 1075 ft 181 kts 130°
2026-05-03 21:52 53.31712 -60.37928 1092 ft 158 kts 130°
2026-05-03 21:52 53.30923 -60.37167 872 ft 130 kts 194°
2026-05-03 21:53 53.30667 -60.38535 444 ft 135 kts 291°
2026-05-03 21:53 53.31230 -60.39714 293 ft 131 kts 316°
2026-05-03 21:53 53.31860 -60.40839 162 ft 123 kts 316°
2026-05-03 21:53 53.32470 -60.41919 271 ft 158 kts 315°
2026-05-03 21:54 53.33337 -60.43455 681 ft 179 kts 316°
2026-05-03 21:54 53.34332 -60.44507 1137 ft 176 kts
2026-05-03 21:54 53.34784 -60.42780 1094 ft 184 kts 98°
2026-05-03 21:54 53.34099 -60.41046 998 ft 183 kts 130°
2026-05-03 21:55 53.33222 -60.39512 945 ft 180 kts 131°
2026-05-03 21:55 53.32361 -60.38004 904 ft 167 kts 133°
2026-05-03 21:55 53.31428 -60.37759 681 ft 141 kts 216°
2026-05-03 21:55 53.31135 -60.39167 422 ft 128 kts 277°
2026-05-03 21:56 53.31608 -60.40398 221 ft 128 kts 317°
2026-05-03 21:56 53.32170 -60.41376 152 ft 106 kts 313°
2026-05-03 21:56 53.32773 -60.42449 399 ft 162 kts 316°
2026-05-03 21:56 53.33725 -60.44061 1114 ft 203 kts 316°
2026-05-03 21:57 53.34821 -60.44678 1490 ft 185 kts 34°
2026-05-03 21:57 53.34959 -60.42696 1218 ft 182 kts 112°
2026-05-03 21:57 53.34116 -60.41153 1079 ft 184 kts 134°
2026-05-03 21:57 53.33231 -60.39616 1021 ft 178 kts 130°
2026-05-03 21:58 53.32423 -60.38047 1085 ft 174 kts 128°
2026-05-03 21:58 53.31738 -60.36746 1143 ft 125 kts 132°
2026-05-03 21:58 53.30995 -60.36999 800 ft 137 kts 233°
2026-05-03 21:58 53.30817 -60.38531 519 ft 134 kts 279°
2026-05-03 21:59 53.31261 -60.39800 317 ft 125 kts 317°
2026-05-03 21:59 53.31846 -60.40819 166 ft 115 kts 316°
2026-05-03 21:59 53.32356 -60.41714 202 ft 113 kts 315°
2026-05-03 21:59 53.33038 -60.42910 586 ft 169 kts 315°
2026-05-03 22:00 53.33264 -60.44586 820 ft 151 kts 243°
2026-05-03 22:00 53.32676 -60.45866 932 ft 131 kts 231°
2026-05-03 22:00 53.32121 -60.47054 996 ft 130 kts 233°
2026-05-03 22:00 53.31592 -60.48298 1065 ft 129 kts 234°
2026-05-03 22:01 53.30914 -60.49180 979 ft 130 kts 186°
2026-05-03 22:01 53.30136 -60.48507 728 ft 133 kts 122°
2026-05-03 22:01 53.29788 -60.47132 587 ft 123 kts 98°
2026-05-03 22:01 53.29980 -60.45803 400 ft 121 kts 60°
2026-05-03 22:02 53.30476 -60.44604 207 ft 123 kts 56°
2026-05-03 22:02 53.30926 -60.43525 183 ft 121 kts 56°
2026-05-03 22:02 53.31569 -60.41973 469 ft 189 kts 54°
2026-05-03 22:02 53.32242 -60.40314 710 ft 154 kts 64°
2026-05-03 22:03 53.32239 -60.38679 745 ft 136 kts 110°
2026-05-03 22:03 53.31695 -60.37549 846 ft 117 kts 132°
2026-05-03 22:03 53.31117 -60.36654 918 ft 112 kts 152°
2026-05-03 22:03 53.30497 -60.37399 628 ft 139 kts 256°
2026-05-03 22:04 53.30780 -60.38911 399 ft 137 kts 309°
2026-05-03 22:04 53.31382 -60.40002 256 ft 123 kts 316°
2026-05-03 22:04 53.31972 -60.41025 161 ft 117 kts 315°
2026-05-03 22:04 53.32665 -60.42285 427 ft 190 kts 313°
2026-05-03 22:05 53.33524 -60.44074 897 ft 181 kts 299°
2026-05-03 22:05 53.33447 -60.46160 1002 ft 193 kts 241°
2026-05-03 22:05 53.32550 -60.47767 1091 ft 193 kts 219°
2026-05-03 22:05 53.31530 -60.49152 1162 ft 184 kts 217°
2026-05-03 22:06 53.30611 -60.50398 1224 ft 152 kts 218°
2026-05-03 22:06 53.29902 -60.51422 1307 ft 120 kts 220°
2026-05-03 22:06 53.29255 -60.51972 1219 ft 107 kts 156°
2026-05-03 22:06 53.29048 -60.50814 926 ft 117 kts 76°
2026-05-03 22:07 53.29190 -60.49472 813 ft 116 kts 82°